sensor_id;sensor_type;location;lat;lon;timestamp;pressure;altitude;pressure_sealevel;temperature;humidity
13612;BME280;6877;51.436;6.774;2023-04-03T00:01:25;102506.13;;;-1.47;100.00
13612;BME280;6877;51.436;6.774;2023-04-03T00:03:52;102512.66;;;-1.52;100.00
13612;BME280;6877;51.436;6.774;2023-04-03T00:06:18;102507.00;;;-1.46;100.00
13612;BME280;6877;51.436;6.774;2023-04-03T00:08:50;102499.59;;;-1.42;100.00
13612;BME280;6877;51.436;6.774;2023-04-03T00:11:18;102505.59;;;-1.41;100.00
13612;BME280;6877;51.436;6.774;2023-04-03T00:13:49;102507.00;;;-1.46;100.00
13612;BME280;6877;51.436;6.774;2023-04-03T00:16:21;102506.84;;;-1.49;100.00
13612;BME280;6877;51.436;6.774;2023-04-03T00:18:47;102510.47;;;-1.46;100.00
13612;BME280;6877;51.436;6.774;2023-04-03T00:21:14;102506.56;;;-1.39;100.00
13612;BME280;6877;51.436;6.774;2023-04-03T00:23:41;102504.63;;;-1.43;100.00
13612;BME280;6877;51.436;6.774;2023-04-03T00:26:08;102503.63;;;-1.45;100.00
13612;BME280;6877;51.436;6.774;2023-04-03T00:28:34;102503.13;;;-1.40;100.00
13612;BME280;6877;51.436;6.774;2023-04-03T00:31:01;102503.38;;;-1.20;100.00
13612;BME280;6877;51.436;6.774;2023-04-03T00:33:27;102502.31;;;-1.24;100.00
13612;BME280;6877;51.436;6.774;2023-04-03T00:35:54;102506.91;;;-1.33;100.00
13612;BME280;6877;51.436;6.774;2023-04-03T00:38:25;102498.69;;;-1.42;100.00
13612;BME280;6877;51.436;6.774;2023-04-03T00:40:51;102503.31;;;-1.51;100.00
13612;BME280;6877;51.436;6.774;2023-04-03T00:43:24;102502.03;;;-1.58;100.00
13612;BME280;6877;51.436;6.774;2023-04-03T00:45:54;102509.66;;;-1.59;100.00
13612;BME280;6877;51.436;6.774;2023-04-03T00:50:51;102503.97;;;-1.69;100.00
13612;BME280;6877;51.436;6.774;2023-04-03T00:53:23;102512.88;;;-1.77;100.00
13612;BME280;6877;51.436;6.774;2023-04-03T00:55:53;102521.72;;;-1.87;100.00
13612;BME280;6877;51.436;6.774;2023-04-03T00:58:25;102512.69;;;-1.95;100.00
13612;BME280;6877;51.436;6.774;2023-04-03T01:00:58;102515.94;;;-1.97;100.00
13612;BME280;6877;51.436;6.774;2023-04-03T01:03:29;102519.69;;;-1.92;100.00
13612;BME280;6877;51.436;6.774;2023-04-03T01:05:57;102515.56;;;-1.75;100.00
13612;BME280;6877;51.436;6.774;2023-04-03T01:08:24;102516.75;;;-1.70;100.00
13612;BME280;6877;51.436;6.774;2023-04-03T01:10:56;102521.28;;;-1.51;100.00
13612;BME280;6877;51.436;6.774;2023-04-03T01:13:30;102525.16;;;-1.43;100.00
13612;BME280;6877;51.436;6.774;2023-04-03T01:15:57;102517.38;;;-1.45;100.00
13612;BME280;6877;51.436;6.774;2023-04-03T01:18:26;102525.53;;;-1.37;100.00
13612;BME280;6877;51.436;6.774;2023-04-03T01:21:27;102528.97;;;-1.36;100.00
13612;BME280;6877;51.436;6.774;2023-04-03T01:26:36;102530.22;;;-1.30;100.00
13612;BME280;6877;51.436;6.774;2023-04-03T01:29:07;102525.53;;;-1.37;100.00
13612;BME280;6877;51.436;6.774;2023-04-03T01:34:22;102541.56;;;-1.26;100.00
13612;BME280;6877;51.436;6.774;2023-04-03T01:36:54;102538.19;;;-1.40;100.00
13612;BME280;6877;51.436;6.774;2023-04-03T01:39:26;102540.88;;;-1.38;100.00
13612;BME280;6877;51.436;6.774;2023-04-03T01:41:52;102539.16;;;-1.23;100.00
13612;BME280;6877;51.436;6.774;2023-04-03T01:44:20;102539.16;;;-1.08;100.00
13612;BME280;6877;51.436;6.774;2023-04-03T01:46:46;102541.91;;;-1.05;100.00
13612;BME280;6877;51.436;6.774;2023-04-03T01:49:13;102537.13;;;-0.99;100.00
13612;BME280;6877;51.436;6.774;2023-04-03T01:51:39;102539.00;;;-0.97;100.00
13612;BME280;6877;51.436;6.774;2023-04-03T01:54:11;102535.25;;;-0.87;100.00
13612;BME280;6877;51.436;6.774;2023-04-03T01:56:37;102539.94;;;-0.80;100.00
13612;BME280;6877;51.436;6.774;2023-04-03T01:59:05;102543.47;;;-0.63;100.00
13612;BME280;6877;51.436;6.774;2023-04-03T02:01:31;102540.50;;;-0.54;100.00
13612;BME280;6877;51.436;6.774;2023-04-03T02:04:02;102537.50;;;-0.47;100.00
13612;BME280;6877;51.436;6.774;2023-04-03T02:06:29;102543.56;;;-0.30;100.00
13612;BME280;6877;51.436;6.774;2023-04-03T02:09:00;102542.69;;;-0.14;100.00
13612;BME280;6877;51.436;6.774;2023-04-03T02:11:27;102544.94;;;-0.04;100.00
13612;BME280;6877;51.436;6.774;2023-04-03T02:13:58;102546.59;;;0.10;100.00
13612;BME280;6877;51.436;6.774;2023-04-03T02:16:24;102551.06;;;0.14;100.00
13612;BME280;6877;51.436;6.774;2023-04-03T02:18:51;102551.31;;;0.19;100.00
13612;BME280;6877;51.436;6.774;2023-04-03T02:21:22;102563.78;;;0.28;100.00
13612;BME280;6877;51.436;6.774;2023-04-03T02:23:54;102550.91;;;0.28;100.00
13612;BME280;6877;51.436;6.774;2023-04-03T02:26:25;102553.31;;;0.25;100.00
13612;BME280;6877;51.436;6.774;2023-04-03T02:28:52;102553.88;;;0.19;100.00
13612;BME280;6877;51.436;6.774;2023-04-03T02:31:24;102552.38;;;0.22;100.00
13612;BME280;6877;51.436;6.774;2023-04-03T02:33:50;102554.84;;;0.21;100.00
13612;BME280;6877;51.436;6.774;2023-04-03T02:36:21;102548.81;;;0.20;100.00
13612;BME280;6877;51.436;6.774;2023-04-03T02:38:48;102548.66;;;0.17;100.00
13612;BME280;6877;51.436;6.774;2023-04-03T02:41:14;102550.41;;;0.18;100.00
13612;BME280;6877;51.436;6.774;2023-04-03T02:43:46;102550.41;;;0.18;100.00
13612;BME280;6877;51.436;6.774;2023-04-03T02:46:12;102551.88;;;0.13;100.00
13612;BME280;6877;51.436;6.774;2023-04-03T02:48:41;102556.38;;;0.17;100.00
13612;BME280;6877;51.436;6.774;2023-04-03T02:51:07;102551.88;;;0.13;100.00
13612;BME280;6877;51.436;6.774;2023-04-03T02:53:34;102562.97;;;0.12;100.00
13612;BME280;6877;51.436;6.774;2023-04-03T02:56:00;102558.09;;;0.17;100.00
13612;BME280;6877;51.436;6.774;2023-04-03T02:58:27;102555.03;;;0.24;100.00
13612;BME280;6877;51.436;6.774;2023-04-03T03:00:53;102562.03;;;0.27;100.00
13612;BME280;6877;51.436;6.774;2023-04-03T03:03:25;102562.50;;;0.19;100.00
13612;BME280;6877;51.436;6.774;2023-04-03T03:06:02;102571.84;;;0.17;100.00
13612;BME280;6877;51.436;6.774;2023-04-03T03:08:34;102569.03;;;0.13;100.00
13612;BME280;6877;51.436;6.774;2023-04-03T03:11:06;102570.78;;;0.14;100.00
13612;BME280;6877;51.436;6.774;2023-04-03T03:13:37;102572.31;;;0.10;100.00
13612;BME280;6877;51.436;6.774;2023-04-03T03:16:08;102579.22;;;0.11;100.00
13612;BME280;6877;51.436;6.774;2023-04-03T03:18:35;102568.94;;;0.11;100.00
13612;BME280;6877;51.436;6.774;2023-04-03T03:21:03;102570.53;;;0.09;100.00
13612;BME280;6877;51.436;6.774;2023-04-03T03:23:35;102571.84;;;0.17;100.00
13612;BME280;6877;51.436;6.774;2023-04-03T03:26:09;102570.25;;;0.19;100.00
13612;BME280;6877;51.436;6.774;2023-04-03T03:28:37;102572.50;;;0.13;100.00
13612;BME280;6877;51.436;6.774;2023-04-03T03:31:09;102569.97;;;0.15;100.00
13612;BME280;6877;51.436;6.774;2023-04-03T03:33:36;102573.84;;;0.07;100.00
13612;BME280;6877;51.436;6.774;2023-04-03T03:36:02;102567.72;;;0.05;100.00
13612;BME280;6877;51.436;6.774;2023-04-03T03:38:34;102568.44;;;0.02;100.00
13612;BME280;6877;51.436;6.774;2023-04-03T03:41:00;102572.53;;;-0.02;100.00
13612;BME280;6877;51.436;6.774;2023-04-03T03:43:27;102572.16;;;0.07;100.00
13612;BME280;6877;51.436;6.774;2023-04-03T03:45:54;102560.88;;;0.05;100.00
13612;BME280;6877;51.436;6.774;2023-04-03T03:48:26;102564.19;;;0.03;100.00
13612;BME280;6877;51.436;6.774;2023-04-03T03:50:52;102562.97;;;-0.04;100.00
13612;BME280;6877;51.436;6.774;2023-04-03T03:53:18;102568.09;;;-0.04;100.00
13612;BME280;6877;51.436;6.774;2023-04-03T03:55:50;102562.78;;;-0.07;100.00
13612;BME280;6877;51.436;6.774;2023-04-03T03:58:22;102566.19;;;-0.08;100.00
13612;BME280;6877;51.436;6.774;2023-04-03T04:00:53;102565.91;;;-0.13;100.00
13612;BME280;6877;51.436;6.774;2023-04-03T04:03:19;102569.25;;;-0.15;100.00
13612;BME280;6877;51.436;6.774;2023-04-03T04:05:52;102568.66;;;-0.10;100.00
13612;BME280;6877;51.436;6.774;2023-04-03T04:08:23;102574.56;;;-0.12;100.00
13612;BME280;6877;51.436;6.774;2023-04-03T04:10:50;102571.88;;;-0.14;100.00
13612;BME280;6877;51.436;6.774;2023-04-03T04:13:22;102572.59;;;-0.16;100.00
13612;BME280;6877;51.436;6.774;2023-04-03T04:15:49;102575.16;;;-0.16;100.00
13612;BME280;6877;51.436;6.774;2023-04-03T04:18:20;102582.88;;;-0.16;100.00
13612;BME280;6877;51.436;6.774;2023-04-03T04:20:52;102580.25;;;-0.18;100.00
13612;BME280;6877;51.436;6.774;2023-04-03T04:23:23;102593.34;;;-0.13;100.00
13612;BME280;6877;51.436;6.774;2023-04-03T04:25:50;102589.81;;;-0.15;100.00
13612;BME280;6877;51.436;6.774;2023-04-03T04:28:22;102597.53;;;-0.15;100.00
13612;BME280;6877;51.436;6.774;2023-04-03T04:30:48;102593.00;;;-0.19;100.00
13612;BME280;6877;51.436;6.774;2023-04-03T04:33:19;102594.63;;;-0.21;100.00
13612;BME280;6877;51.436;6.774;2023-04-03T04:35:47;102591.06;;;-0.24;100.00
13612;BME280;6877;51.436;6.774;2023-04-03T04:38:19;102601.19;;;-0.27;100.00
13612;BME280;6877;51.436;6.774;2023-04-03T04:40:50;102595.88;;;-0.30;100.00
13612;BME280;6877;51.436;6.774;2023-04-03T04:43:17;102595.00;;;-0.30;100.00
13612;BME280;6877;51.436;6.774;2023-04-03T04:45:44;102602.44;;;-0.35;100.00
13612;BME280;6877;51.436;6.774;2023-04-03T04:48:10;102609.47;;;-0.32;100.00
13612;BME280;6877;51.436;6.774;2023-04-03T04:50:42;102614.00;;;-0.43;100.00
13612;BME280;6877;51.436;6.774;2023-04-03T04:53:08;102614.66;;;-0.47;100.00
13612;BME280;6877;51.436;6.774;2023-04-03T04:55:34;102618.00;;;-0.48;100.00
13612;BME280;6877;51.436;6.774;2023-04-03T04:58:01;102618.47;;;-0.55;100.00
13612;BME280;6877;51.436;6.774;2023-04-03T05:00:27;102615.81;;;-0.57;100.00
13612;BME280;6877;51.436;6.774;2023-04-03T05:02:54;102615.09;;;-0.54;100.00
13612;BME280;6877;51.436;6.774;2023-04-03T05:05:20;102624.59;;;-0.53;100.00
13612;BME280;6877;51.436;6.774;2023-04-03T05:07:47;102616.31;;;-0.48;100.00
13612;BME280;6877;51.436;6.774;2023-04-03T05:10:13;102620.75;;;-0.45;100.00
13612;BME280;6877;51.436;6.774;2023-04-03T05:12:45;102621.63;;;-0.44;100.00
13612;BME280;6877;51.436;6.774;2023-04-03T05:15:16;102628.81;;;-0.39;100.00
13612;BME280;6877;51.436;6.774;2023-04-03T05:17:47;102622.72;;;-0.41;100.00
13612;BME280;6877;51.436;6.774;2023-04-03T05:20:14;102623.59;;;-0.40;100.00
13612;BME280;6877;51.436;6.774;2023-04-03T05:22:41;102620.72;;;-0.30;100.00
13612;BME280;6877;51.436;6.774;2023-04-03T05:25:07;102626.13;;;-0.26;100.00
13612;BME280;6877;51.436;6.774;2023-04-03T05:27:34;102624.63;;;-0.22;100.00
13612;BME280;6877;51.436;6.774;2023-04-03T05:30:06;102630.09;;;-0.16;99.76
13612;BME280;6877;51.436;6.774;2023-04-03T05:32:32;102637.97;;;-0.13;99.35
13612;BME280;6877;51.436;6.774;2023-04-03T05:34:59;102632.22;;;-0.09;99.72
13612;BME280;6877;51.436;6.774;2023-04-03T05:37:26;102645.66;;;0.02;98.69
13612;BME280;6877;51.436;6.774;2023-04-03T05:39:52;102642.44;;;0.06;98.10
13612;BME280;6877;51.436;6.774;2023-04-03T05:42:18;102642.78;;;0.12;97.49
13612;BME280;6877;51.436;6.774;2023-04-03T05:44:45;102639.59;;;0.16;97.47
13612;BME280;6877;51.436;6.774;2023-04-03T05:47:20;102641.69;;;0.23;97.13
13612;BME280;6877;51.436;6.774;2023-04-03T05:49:47;102646.94;;;0.41;96.89
13612;BME280;6877;51.436;6.774;2023-04-03T05:52:26;102663.84;;;0.69;95.65
13612;BME280;6877;51.436;6.774;2023-04-03T05:54:53;102664.56;;;0.99;94.45
13612;BME280;6877;51.436;6.774;2023-04-03T05:57:25;102666.75;;;0.91;92.56
13612;BME280;6877;51.436;6.774;2023-04-03T05:59:56;102668.75;;;0.81;92.77
13612;BME280;6877;51.436;6.774;2023-04-03T06:02:24;102672.47;;;0.86;92.97
13612;BME280;6877;51.436;6.774;2023-04-03T06:04:51;102680.19;;;0.86;92.29
13612;BME280;6877;51.436;6.774;2023-04-03T06:07:20;102677.47;;;0.83;92.18
13612;BME280;6877;51.436;6.774;2023-04-03T06:09:54;102678.81;;;0.92;92.25
13612;BME280;6877;51.436;6.774;2023-04-03T06:12:22;102688.06;;;1.05;91.47
13612;BME280;6877;51.436;6.774;2023-04-03T06:14:49;102675.66;;;1.67;91.54
13612;BME280;6877;51.436;6.774;2023-04-03T06:17:21;102682.34;;;2.17;86.03
13612;BME280;6877;51.436;6.774;2023-04-03T06:19:47;102678.63;;;2.29;85.39
13612;BME280;6877;51.436;6.774;2023-04-03T06:22:14;102678.69;;;2.12;84.44
13612;BME280;6877;51.436;6.774;2023-04-03T06:24:41;102681.72;;;1.67;85.97
13612;BME280;6877;51.436;6.774;2023-04-03T06:27:08;102670.50;;;1.49;88.35
13612;BME280;6877;51.436;6.774;2023-04-03T06:29:35;102662.28;;;1.57;88.16
13612;BME280;6877;51.436;6.774;2023-04-03T06:32:08;102665.56;;;1.71;86.89
13612;BME280;6877;51.436;6.774;2023-04-03T06:34:39;102664.06;;;1.76;86.67
13612;BME280;6877;51.436;6.774;2023-04-03T06:37:15;102664.88;;;1.93;87.11
13612;BME280;6877;51.436;6.774;2023-04-03T06:39:43;102667.38;;;2.47;84.27
13612;BME280;6877;51.436;6.774;2023-04-03T06:42:14;102656.72;;;2.99;82.44
13612;BME280;6877;51.436;6.774;2023-04-03T06:44:41;102669.22;;;3.29;79.90
13612;BME280;6877;51.436;6.774;2023-04-03T06:47:14;102667.16;;;3.84;78.19
13612;BME280;6877;51.436;6.774;2023-04-03T06:49:41;102678.69;;;4.60;77.06
13612;BME280;6877;51.436;6.774;2023-04-03T06:52:08;102676.56;;;5.22;72.21
13612;BME280;6877;51.436;6.774;2023-04-03T06:54:40;102677.63;;;5.52;67.90
13612;BME280;6877;51.436;6.774;2023-04-03T06:57:11;102688.34;;;6.17;65.87
13612;BME280;6877;51.436;6.774;2023-04-03T06:59:38;102685.63;;;6.41;63.60
13612;BME280;6877;51.436;6.774;2023-04-03T07:02:04;102700.19;;;6.08;62.78
13612;BME280;6877;51.436;6.774;2023-04-03T07:04:31;102691.44;;;5.78;62.02
13612;BME280;6877;51.436;6.774;2023-04-03T07:06:57;102689.09;;;5.59;62.55
13612;BME280;6877;51.436;6.774;2023-04-03T07:09:24;102688.31;;;5.62;62.38
13612;BME280;6877;51.436;6.774;2023-04-03T07:11:50;102693.63;;;5.65;62.23
13612;BME280;6877;51.436;6.774;2023-04-03T07:14:17;102696.03;;;5.09;64.04
13612;BME280;6877;51.436;6.774;2023-04-03T07:16:48;102698.00;;;4.67;65.21
13612;BME280;6877;51.436;6.774;2023-04-03T07:19:19;102705.66;;;4.87;64.41
13612;BME280;6877;51.436;6.774;2023-04-03T07:21:46;102708.50;;;4.71;63.74
13612;BME280;6877;51.436;6.774;2023-04-03T07:24:12;102704.59;;;4.58;65.17
13612;BME280;6877;51.436;6.774;2023-04-03T07:26:44;102706.47;;;4.86;64.98
13612;BME280;6877;51.436;6.774;2023-04-03T07:29:11;102706.88;;;5.48;61.68
13612;BME280;6877;51.436;6.774;2023-04-03T07:31:39;102710.00;;;6.16;59.28
13612;BME280;6877;51.436;6.774;2023-04-03T07:34:05;102718.78;;;6.20;58.57
13612;BME280;6877;51.436;6.774;2023-04-03T07:36:32;102714.25;;;6.43;58.08
13612;BME280;6877;51.436;6.774;2023-04-03T07:38:59;102712.66;;;7.07;55.91
13612;BME280;6877;51.436;6.774;2023-04-03T07:41:26;102713.53;;;7.07;55.01
13612;BME280;6877;51.436;6.774;2023-04-03T07:43:57;102707.72;;;7.51;53.49
13612;BME280;6877;51.436;6.774;2023-04-03T07:46:24;102715.47;;;7.84;52.63
13612;BME280;6877;51.436;6.774;2023-04-03T07:48:50;102715.91;;;8.01;51.07
13612;BME280;6877;51.436;6.774;2023-04-03T07:51:21;102719.19;;;7.57;52.04
13612;BME280;6877;51.436;6.774;2023-04-03T07:53:48;102714.38;;;7.74;52.22
13612;BME280;6877;51.436;6.774;2023-04-03T07:56:14;102720.50;;;7.41;52.14
13612;BME280;6877;51.436;6.774;2023-04-03T07:58:41;102717.63;;;7.31;52.55
13612;BME280;6877;51.436;6.774;2023-04-03T08:01:12;102710.94;;;8.51;49.79
13612;BME280;6877;51.436;6.774;2023-04-03T08:03:39;102714.56;;;9.48;46.59
13612;BME280;6877;51.436;6.774;2023-04-03T08:06:07;102716.16;;;11.24;43.08
13612;BME280;6877;51.436;6.774;2023-04-03T08:08:37;102715.50;;;12.80;37.73
13612;BME280;6877;51.436;6.774;2023-04-03T08:11:03;102720.06;;;14.06;35.47
13612;BME280;6877;51.436;6.774;2023-04-03T08:13:32;102723.44;;;14.67;33.22
13612;BME280;6877;51.436;6.774;2023-04-03T08:16:13;102723.34;;;14.83;32.35
13612;BME280;6877;51.436;6.774;2023-04-03T08:18:41;102724.50;;;15.78;30.86
13612;BME280;6877;51.436;6.774;2023-04-03T08:21:12;102726.97;;;16.77;28.83
13612;BME280;6877;51.436;6.774;2023-04-03T08:23:39;102724.66;;;15.58;28.34
13612;BME280;6877;51.436;6.774;2023-04-03T08:26:15;102721.84;;;15.81;29.01
13612;BME280;6877;51.436;6.774;2023-04-03T08:28:42;102721.66;;;16.03;28.09
13612;BME280;6877;51.436;6.774;2023-04-03T08:31:11;102722.81;;;16.56;27.22
13612;BME280;6877;51.436;6.774;2023-04-03T08:33:39;102721.16;;;17.18;26.24
13612;BME280;6877;51.436;6.774;2023-04-03T08:36:23;102738.94;;;19.05;24.52
13612;BME280;6877;51.436;6.774;2023-04-03T08:38:50;102725.88;;;18.06;24.30
13612;BME280;6877;51.436;6.774;2023-04-03T08:41:36;102724.69;;;19.09;23.80
13612;BME280;6877;51.436;6.774;2023-04-03T08:49:43;102733.63;;;18.62;22.79
13612;BME280;6877;51.436;6.774;2023-04-03T08:52:21;102733.94;;;17.47;23.42
13612;BME280;6877;51.436;6.774;2023-04-03T08:55:01;102739.41;;;16.67;23.86
13612;BME280;6877;51.436;6.774;2023-04-03T08:57:35;102736.81;;;16.65;23.44
13612;BME280;6877;51.436;6.774;2023-04-03T09:00:23;102722.03;;;17.71;22.74
13612;BME280;6877;51.436;6.774;2023-04-03T09:02:52;102725.16;;;18.88;21.28
13612;BME280;6877;51.436;6.774;2023-04-03T09:10:28;102747.47;;;18.33;21.71
13612;BME280;6877;51.436;6.774;2023-04-03T09:15:40;102738.94;;;17.07;22.18
13612;BME280;6877;51.436;6.774;2023-04-03T09:21:21;102742.19;;;15.68;22.70
13612;BME280;6877;51.436;6.774;2023-04-03T09:23:53;102744.81;;;15.71;23.04
13612;BME280;6877;51.436;6.774;2023-04-03T09:26:51;102737.81;;;15.61;23.71
13612;BME280;6877;51.436;6.774;2023-04-03T09:29:21;102745.56;;;16.67;21.36
13612;BME280;6877;51.436;6.774;2023-04-03T09:31:50;102741.16;;;15.85;22.18
13612;BME280;6877;51.436;6.774;2023-04-03T09:34:22;102736.78;;;15.82;22.70
13612;BME280;6877;51.436;6.774;2023-04-03T09:36:53;102733.75;;;16.25;21.27
13612;BME280;6877;51.436;6.774;2023-04-03T09:39:27;102738.16;;;16.23;20.63
13612;BME280;6877;51.436;6.774;2023-04-03T09:42:00;102732.41;;;15.83;21.36
13612;BME280;6877;51.436;6.774;2023-04-03T09:44:34;102729.63;;;15.95;21.07
13612;BME280;6877;51.436;6.774;2023-04-03T09:52:40;102733.91;;;14.80;22.00
13612;BME280;6877;51.436;6.774;2023-04-03T09:55:21;102723.19;;;15.17;21.20
13612;BME280;6877;51.436;6.774;2023-04-03T09:58:01;102746.94;;;16.25;20.77
13612;BME280;6877;51.436;6.774;2023-04-03T10:00:36;102729.44;;;16.13;20.35
13612;BME280;6877;51.436;6.774;2023-04-03T10:03:04;102728.22;;;15.49;19.97
13612;BME280;6877;51.436;6.774;2023-04-03T10:05:37;102712.91;;;15.96;19.79
13612;BME280;6877;51.436;6.774;2023-04-03T10:10:35;102738.44;;;14.38;21.37
13612;BME280;6877;51.436;6.774;2023-04-03T10:13:07;102728.53;;;15.00;20.28
13612;BME280;6877;51.436;6.774;2023-04-03T10:15:43;102711.56;;;15.41;20.25
13612;BME280;6877;51.436;6.774;2023-04-03T10:21:02;102715.75;;;15.74;19.28
13612;BME280;6877;51.436;6.774;2023-04-03T10:23:42;102715.88;;;15.58;19.05
13612;BME280;6877;51.436;6.774;2023-04-03T10:26:39;102714.44;;;15.09;19.75
13612;BME280;6877;51.436;6.774;2023-04-03T10:32:02;102707.88;;;16.52;18.84
13612;BME280;6877;51.436;6.774;2023-04-03T10:34:39;102705.19;;;15.73;19.96
13612;BME280;6877;51.436;6.774;2023-04-03T10:37:32;102696.88;;;16.14;19.90
13612;BME280;6877;51.436;6.774;2023-04-03T10:40:13;102683.53;;;15.28;20.84
13612;BME280;6877;51.436;6.774;2023-04-03T10:42:52;102685.06;;;15.58;21.07
13612;BME280;6877;51.436;6.774;2023-04-03T10:50:43;102689.09;;;16.01;20.84
13612;BME280;6877;51.436;6.774;2023-04-03T10:58:52;102679.19;;;15.19;21.85
13612;BME280;6877;51.436;6.774;2023-04-03T11:01:33;102676.00;;;16.64;20.61
13612;BME280;6877;51.436;6.774;2023-04-03T11:04:07;102678.88;;;15.67;21.14
13612;BME280;6877;51.436;6.774;2023-04-03T11:06:43;102675.16;;;14.60;22.34
13612;BME280;6877;51.436;6.774;2023-04-03T11:09:30;102681.47;;;13.93;23.44
13612;BME280;6877;51.436;6.774;2023-04-03T11:12:11;102674.31;;;14.47;23.42
13612;BME280;6877;51.436;6.774;2023-04-03T11:14:45;102655.59;;;14.99;22.75
13612;BME280;6877;51.436;6.774;2023-04-03T11:20:10;102665.66;;;14.10;23.53
13612;BME280;6877;51.436;6.774;2023-04-03T11:22:51;102655.09;;;14.08;23.93
13612;BME280;6877;51.436;6.774;2023-04-03T11:25:21;102652.47;;;14.14;23.88
13612;BME280;6877;51.436;6.774;2023-04-03T11:27:59;102659.53;;;13.96;24.33
13612;BME280;6877;51.436;6.774;2023-04-03T11:36:10;102645.13;;;9.64;31.68
13612;BME280;6877;51.436;6.774;2023-04-03T11:38:42;102646.13;;;9.18;33.35
13612;BME280;6877;51.436;6.774;2023-04-03T11:41:15;102647.56;;;8.55;33.04
13612;BME280;6877;51.436;6.774;2023-04-03T11:44:02;102652.91;;;8.22;34.71
13612;BME280;6877;51.436;6.774;2023-04-03T11:47:02;102654.81;;;7.91;35.19
13612;BME280;6877;51.436;6.774;2023-04-03T11:49:56;102638.34;;;7.92;35.70
13612;BME280;6877;51.436;6.774;2023-04-03T12:00:55;102627.13;;;7.57;36.13
13612;BME280;6877;51.436;6.774;2023-04-03T12:13:36;102620.28;;;7.26;36.50
13612;BME280;6877;51.436;6.774;2023-04-03T12:40:10;102594.63;;;7.42;35.53
13612;BME280;6877;51.436;6.774;2023-04-03T12:45:41;102585.50;;;7.24;36.13
13612;BME280;6877;51.436;6.774;2023-04-03T12:48:29;102581.28;;;7.29;36.90
13612;BME280;6877;51.436;6.774;2023-04-03T12:50:58;102576.69;;;7.56;36.34
13612;BME280;6877;51.436;6.774;2023-04-03T12:53:31;102577.69;;;7.61;35.59
13612;BME280;6877;51.436;6.774;2023-04-03T12:56:26;102573.50;;;7.66;35.99
13612;BME280;6877;51.436;6.774;2023-04-03T12:58:54;102568.22;;;7.63;35.52
13612;BME280;6877;51.436;6.774;2023-04-03T13:01:24;102553.66;;;7.75;36.01
13612;BME280;6877;51.436;6.774;2023-04-03T13:03:58;102565.09;;;7.80;35.38
13612;BME280;6877;51.436;6.774;2023-04-03T13:06:42;102568.06;;;7.57;35.38
13612;BME280;6877;51.436;6.774;2023-04-03T13:09:27;102580.81;;;7.45;35.69
13612;BME280;6877;51.436;6.774;2023-04-03T13:12:15;102572.91;;;7.42;35.97
13612;BME280;6877;51.436;6.774;2023-04-03T13:14:52;102559.09;;;7.46;35.36
13612;BME280;6877;51.436;6.774;2023-04-03T13:17:20;102566.34;;;7.59;36.20
13612;BME280;6877;51.436;6.774;2023-04-03T13:19:48;102574.66;;;7.43;35.29
13612;BME280;6877;51.436;6.774;2023-04-03T13:22:28;102560.75;;;7.41;36.02
13612;BME280;6877;51.436;6.774;2023-04-03T13:25:14;102562.50;;;7.42;35.54
13612;BME280;6877;51.436;6.774;2023-04-03T13:27:42;102570.25;;;7.39;35.43
13612;BME280;6877;51.436;6.774;2023-04-03T13:30:29;102557.28;;;7.42;35.72
13612;BME280;6877;51.436;6.774;2023-04-03T13:32:59;102543.63;;;7.52;35.70
13612;BME280;6877;51.436;6.774;2023-04-03T13:38:06;102542.63;;;7.86;34.74
13612;BME280;6877;51.436;6.774;2023-04-03T13:43:29;102548.66;;;7.84;35.66
13612;BME280;6877;51.436;6.774;2023-04-03T13:46:03;102538.16;;;7.81;36.00
13612;BME280;6877;51.436;6.774;2023-04-03T13:48:42;102537.41;;;7.85;36.55
13612;BME280;6877;51.436;6.774;2023-04-03T14:04:16;102533.28;;;7.55;36.29
13612;BME280;6877;51.436;6.774;2023-04-03T14:06:49;102516.03;;;7.60;36.59
13612;BME280;6877;51.436;6.774;2023-04-03T14:09:17;102519.91;;;7.81;36.39
13612;BME280;6877;51.436;6.774;2023-04-03T14:11:44;102513.97;;;7.86;35.60
13612;BME280;6877;51.436;6.774;2023-04-03T14:14:16;102507.91;;;7.87;35.43
13612;BME280;6877;51.436;6.774;2023-04-03T14:16:46;102508.75;;;7.85;35.61
13612;BME280;6877;51.436;6.774;2023-04-03T14:19:22;102527.75;;;7.81;35.41
13612;BME280;6877;51.436;6.774;2023-04-03T14:21:49;102509.16;;;7.65;35.81
13612;BME280;6877;51.436;6.774;2023-04-03T14:24:17;102489.97;;;7.60;36.17
13612;BME280;6877;51.436;6.774;2023-04-03T14:26:43;102496.34;;;7.75;36.51
13612;BME280;6877;51.436;6.774;2023-04-03T14:29:11;102512.97;;;7.80;37.10
13612;BME280;6877;51.436;6.774;2023-04-03T14:31:39;102516.09;;;7.65;36.59
13612;BME280;6877;51.436;6.774;2023-04-03T14:34:07;102499.47;;;7.58;37.03
13612;BME280;6877;51.436;6.774;2023-04-03T14:36:36;102500.47;;;7.63;37.65
13612;BME280;6877;51.436;6.774;2023-04-03T14:39:11;102495.94;;;7.56;37.04
13612;BME280;6877;51.436;6.774;2023-04-03T14:41:43;102490.63;;;7.52;37.29
13612;BME280;6877;51.436;6.774;2023-04-03T14:44:10;102499.66;;;7.68;37.23
13612;BME280;6877;51.436;6.774;2023-04-03T14:46:43;102481.41;;;7.66;37.17
13612;BME280;6877;51.436;6.774;2023-04-03T14:49:14;102486.56;;;7.64;37.13
13612;BME280;6877;51.436;6.774;2023-04-03T14:51:41;102484.75;;;7.60;36.84
13612;BME280;6877;51.436;6.774;2023-04-03T14:54:16;102486.50;;;7.61;37.58
13612;BME280;6877;51.436;6.774;2023-04-03T14:56:43;102493.41;;;7.59;38.04
13612;BME280;6877;51.436;6.774;2023-04-03T14:59:12;102487.97;;;7.50;37.69
13612;BME280;6877;51.436;6.774;2023-04-03T15:01:45;102488.84;;;7.49;38.06
13612;BME280;6877;51.436;6.774;2023-04-03T15:04:19;102479.34;;;7.51;37.85
13612;BME280;6877;51.436;6.774;2023-04-03T15:06:51;102474.34;;;7.60;38.47
13612;BME280;6877;51.436;6.774;2023-04-03T15:09:28;102476.28;;;7.71;37.99
13612;BME280;6877;51.436;6.774;2023-04-03T15:11:55;102477.13;;;7.70;37.41
13612;BME280;6877;51.436;6.774;2023-04-03T15:14:26;102481.22;;;7.58;37.37
13612;BME280;6877;51.436;6.774;2023-04-03T15:16:58;102489.69;;;7.48;37.69
13612;BME280;6877;51.436;6.774;2023-04-03T15:19:36;102479.06;;;7.39;38.13
13612;BME280;6877;51.436;6.774;2023-04-03T15:22:03;102482.56;;;7.39;37.08
13612;BME280;6877;51.436;6.774;2023-04-03T15:24:29;102480.00;;;7.41;37.33